createdAt,value
2022-11-26T00:01:47.882Z,52.70
2022-11-26T00:04:15.454Z,51.94
2022-11-26T00:06:42.959Z,51.75
2022-11-26T00:09:17.339Z,52.82
2022-11-26T00:11:44.918Z,53.20
2022-11-26T00:14:13.393Z,52.39
2022-11-26T00:16:40.650Z,53.36
2022-11-26T00:19:08.221Z,54.15
2022-11-26T00:21:36.293Z,52.22
2022-11-26T00:24:03.737Z,51.68
2022-11-26T00:26:31.222Z,51.50
2022-11-26T00:29:00.270Z,52.70
2022-11-26T00:31:27.974Z,52.95
2022-11-26T00:33:55.756Z,52.23
2022-11-26T00:36:26.537Z,52.05
2022-11-26T00:38:57.499Z,51.13
2022-11-26T00:41:25.355Z,51.51
2022-11-26T00:43:52.610Z,52.67
2022-11-26T00:46:21.288Z,52.39
2022-11-26T00:48:48.911Z,52.07
2022-11-26T00:51:20.663Z,51.81
2022-11-26T00:53:47.988Z,52.22
2022-11-26T00:56:18.132Z,52.16
2022-11-26T00:58:45.751Z,51.86
2022-11-26T01:01:13.707Z,51.61
2022-11-26T01:03:43.062Z,51.04
2022-11-26T01:06:19.005Z,51.26
2022-11-26T01:08:46.600Z,51.35
2022-11-26T01:11:15.492Z,51.63
2022-11-26T01:13:43.387Z,51.17
2022-11-26T01:16:16.763Z,50.95
2022-11-26T01:18:43.980Z,51.29
2022-11-26T01:21:11.587Z,51.63
2022-11-26T01:23:38.826Z,51.47
2022-11-26T01:26:06.685Z,51.48
2022-11-26T01:28:34.348Z,51.47
2022-11-26T01:31:01.537Z,51.69
2022-11-26T01:33:28.738Z,51.61
2022-11-26T01:35:57.107Z,51.62
2022-11-26T01:38:24.260Z,52.64
2022-11-26T01:40:58.207Z,52.16
2022-11-26T01:43:55.199Z,51.88
2022-11-26T01:46:26.457Z,51.86
2022-11-26T01:48:54.043Z,51.61
2022-11-26T01:51:24.080Z,51.49
2022-11-26T01:53:53.056Z,51.93
2022-11-26T01:56:22.507Z,51.91
2022-11-26T01:58:51.257Z,52.41
2022-11-26T02:01:18.625Z,52.76
2022-11-26T02:04:06.155Z,52.09
2022-11-26T02:06:33.911Z,51.67
2022-11-26T02:09:02.021Z,52.22
2022-11-26T02:11:29.318Z,51.94
2022-11-26T02:13:58.628Z,52.30
2022-11-26T02:16:29.114Z,51.92
2022-11-26T02:19:04.211Z,52.08
2022-11-26T02:21:31.683Z,51.70
2022-11-26T02:24:21.133Z,52.22
2022-11-26T02:26:48.815Z,51.56
2022-11-26T02:29:17.726Z,51.73
2022-11-26T02:31:49.304Z,52.00
2022-11-26T02:34:25.742Z,51.71
2022-11-26T02:37:00.303Z,52.29
2022-11-26T02:39:28.631Z,51.46
2022-11-26T02:41:56.947Z,52.23
2022-11-26T02:44:25.028Z,52.38
2022-11-26T02:46:54.582Z,51.77
2022-11-26T02:49:22.430Z,51.28
2022-11-26T02:51:50.234Z,51.88
2022-11-26T02:54:17.703Z,52.25
2022-11-26T02:56:44.922Z,52.26
2022-11-26T02:59:12.915Z,52.26
2022-11-26T03:01:42.239Z,52.10
2022-11-26T03:04:10.527Z,51.89
2022-11-26T03:06:37.823Z,51.91
2022-11-26T03:09:05.451Z,51.81
2022-11-26T03:11:32.774Z,51.98
2022-11-26T03:13:59.958Z,51.84
2022-11-26T03:16:27.506Z,51.71
2022-11-26T03:18:54.723Z,51.77
2022-11-26T03:21:21.955Z,51.60
2022-11-26T03:23:49.545Z,52.11
2022-11-26T03:26:16.739Z,51.77
2022-11-26T03:28:43.942Z,52.78
2022-11-26T03:31:11.425Z,53.00
2022-11-26T03:33:38.655Z,52.84
2022-11-26T03:36:05.980Z,53.29
2022-11-26T03:38:33.464Z,52.68
2022-11-26T03:41:01.548Z,52.58
2022-11-26T03:43:28.734Z,52.36
2022-11-26T03:45:56.201Z,52.93
2022-11-26T03:48:23.477Z,53.64
2022-11-26T03:50:50.751Z,53.45
2022-11-26T03:53:18.181Z,52.75
2022-11-26T03:55:45.437Z,52.63
2022-11-26T03:58:12.615Z,52.37
2022-11-26T04:00:40.117Z,52.57
2022-11-26T04:03:07.618Z,53.37
2022-11-26T04:05:34.847Z,53.57
2022-11-26T04:08:02.044Z,53.27
2022-11-26T04:10:29.518Z,53.38
2022-11-26T04:12:56.657Z,54.03
2022-11-26T04:15:23.870Z,53.94
2022-11-26T04:17:51.290Z,54.28
2022-11-26T04:20:18.641Z,54.39
2022-11-26T04:22:45.836Z,54.55
2022-11-26T04:25:13.320Z,53.28
2022-11-26T04:27:40.517Z,52.36
2022-11-26T04:30:08.009Z,53.02
2022-11-26T04:32:36.950Z,53.55
2022-11-26T04:35:04.446Z,53.54
2022-11-26T04:37:31.635Z,53.12
2022-11-26T04:39:59.130Z,53.68
2022-11-26T04:42:26.373Z,53.75
2022-11-26T04:44:53.631Z,53.60
2022-11-26T04:47:21.100Z,53.71
2022-11-26T04:49:48.295Z,54.12
2022-11-26T04:52:15.472Z,54.49
2022-11-26T04:54:42.962Z,54.10
2022-11-26T04:57:10.168Z,54.42
2022-11-26T04:59:37.343Z,54.50
2022-11-26T05:02:04.881Z,54.34
2022-11-26T05:04:32.071Z,54.31
2022-11-26T05:06:59.264Z,54.46
2022-11-26T05:09:26.736Z,54.65
2022-11-26T05:11:54.004Z,54.61
2022-11-26T05:14:21.193Z,53.74
2022-11-26T05:16:48.712Z,54.20
2022-11-26T05:19:16.446Z,53.73
2022-11-26T05:21:43.630Z,55.57
2022-11-26T05:24:11.205Z,54.66
2022-11-26T05:26:38.515Z,53.47
2022-11-26T05:29:05.684Z,55.01
2022-11-26T05:31:33.226Z,54.99
2022-11-26T05:34:00.438Z,55.46
2022-11-26T05:36:27.629Z,56.61
2022-11-26T05:38:55.130Z,55.96
2022-11-26T05:41:22.277Z,54.82
2022-11-26T05:43:49.465Z,54.75
2022-11-26T05:46:16.981Z,54.99
2022-11-26T05:48:44.264Z,55.42
2022-11-26T05:51:11.429Z,55.79
2022-11-26T05:53:38.865Z,55.15
2022-11-26T05:56:06.112Z,54.16
2022-11-26T05:58:33.819Z,55.46
2022-11-26T06:01:01.329Z,55.71
2022-11-26T06:03:28.929Z,55.76
2022-11-26T06:05:56.249Z,54.20
2022-11-26T06:08:23.452Z,55.15
2022-11-26T06:10:50.900Z,54.79
2022-11-26T06:13:18.079Z,54.84
2022-11-26T06:15:45.313Z,55.24
2022-11-26T06:18:12.767Z,55.30
2022-11-26T06:20:40.015Z,55.54
2022-11-26T06:23:07.198Z,54.34
2022-11-26T06:25:34.655Z,54.75
2022-11-26T06:28:01.842Z,54.38
2022-11-26T06:30:29.088Z,56.30
2022-11-26T06:32:56.546Z,56.20
2022-11-26T06:35:23.943Z,56.02
2022-11-26T06:37:51.138Z,56.26
2022-11-26T06:40:19.256Z,55.03
2022-11-26T06:42:52.591Z,55.30
2022-11-26T06:45:20.827Z,55.56
2022-11-26T06:47:48.453Z,55.19
2022-11-26T06:50:16.550Z,54.11
2022-11-26T06:52:44.022Z,56.35
2022-11-26T06:55:11.257Z,56.16
2022-11-26T06:57:38.503Z,56.14
2022-11-26T07:00:07.568Z,56.26
2022-11-26T07:02:34.848Z,54.41
2022-11-26T07:05:02.107Z,54.92
2022-11-26T07:07:29.673Z,55.38
2022-11-26T07:09:56.916Z,54.51
2022-11-26T07:12:24.118Z,55.23
2022-11-26T07:14:51.590Z,54.06
2022-11-26T07:17:18.755Z,55.43
2022-11-26T07:19:45.963Z,54.99
2022-11-26T07:22:13.459Z,53.37
2022-11-26T07:24:40.889Z,55.19
2022-11-26T07:27:08.576Z,54.42
2022-11-26T07:29:36.171Z,54.39
2022-11-26T07:32:03.533Z,53.29
2022-11-26T07:34:30.765Z,52.81
2022-11-26T07:36:58.459Z,53.39
2022-11-26T07:39:25.776Z,52.22
2022-11-26T07:41:52.997Z,51.18
2022-11-26T07:44:20.484Z,53.04
2022-11-26T07:46:47.672Z,51.61
2022-11-26T07:49:14.825Z,52.20
2022-11-26T07:51:42.569Z,52.31
2022-11-26T07:54:10.179Z,50.66
2022-11-26T07:56:37.451Z,50.94
2022-11-26T07:59:05.007Z,52.26
2022-11-26T08:01:32.287Z,52.55
2022-11-26T08:04:00.392Z,51.87
2022-11-26T08:06:28.371Z,52.36
2022-11-26T08:08:55.699Z,51.86
2022-11-26T08:11:24.413Z,50.94
2022-11-26T08:13:55.136Z,50.38
2022-11-26T08:16:22.729Z,52.18
2022-11-26T08:18:53.233Z,50.87
2022-11-26T08:21:20.658Z,50.51
2022-11-26T08:23:48.198Z,52.20
2022-11-26T08:26:29.106Z,51.27
2022-11-26T08:29:00.682Z,52.12
2022-11-26T08:31:28.412Z,50.59
2022-11-26T08:33:56.541Z,51.63
2022-11-26T08:36:23.978Z,50.97
2022-11-26T08:38:51.181Z,49.98
2022-11-26T08:41:18.357Z,50.20
2022-11-26T08:44:05.736Z,50.25
2022-11-26T08:46:33.230Z,50.16
2022-11-26T08:49:00.700Z,50.15
2022-11-26T08:51:27.980Z,49.38
2022-11-26T08:53:55.192Z,49.15
2022-11-26T08:56:22.753Z,50.70
2022-11-26T08:58:51.455Z,50.36
2022-11-26T09:01:28.759Z,50.01
2022-11-26T09:03:57.284Z,51.48
2022-11-26T09:06:25.075Z,49.67
2022-11-26T09:09:11.053Z,49.05
2022-11-26T09:11:39.696Z,49.98
2022-11-26T09:14:06.971Z,49.80
2022-11-26T09:16:34.349Z,49.99
2022-11-26T09:19:02.491Z,51.01
2022-11-26T09:21:29.869Z,51.13
2022-11-26T09:23:57.018Z,50.84
2022-11-26T09:26:25.297Z,50.91
2022-11-26T09:28:52.500Z,51.29
2022-11-26T09:31:19.718Z,51.94
2022-11-26T09:33:47.667Z,51.45
2022-11-26T09:36:15.511Z,52.83
2022-11-26T09:38:42.911Z,50.29
2022-11-26T09:41:13.106Z,50.23
2022-11-26T09:43:59.275Z,50.34
2022-11-26T09:46:45.569Z,51.08
2022-11-26T09:49:22.182Z,51.33
2022-11-26T09:51:50.951Z,51.45
2022-11-26T09:54:19.314Z,49.91
2022-11-26T09:56:47.263Z,49.88
2022-11-26T09:59:15.476Z,50.13
2022-11-26T10:01:42.860Z,50.71
2022-11-26T10:04:13.779Z,49.23
2022-11-26T10:06:43.498Z,49.12
2022-11-26T10:09:13.777Z,49.56
2022-11-26T10:11:44.022Z,49.59
2022-11-26T10:14:23.377Z,49.84
2022-11-26T10:17:09.293Z,50.29
2022-11-26T10:19:55.380Z,49.44
2022-11-26T10:22:23.746Z,50.20
2022-11-26T10:24:51.192Z,51.12
2022-11-26T10:27:19.234Z,51.04
2022-11-26T10:29:48.276Z,52.38
2022-11-26T10:32:17.186Z,52.04
2022-11-26T10:34:51.536Z,52.08
2022-11-26T10:37:19.609Z,50.67
2022-11-26T10:39:46.781Z,50.80
2022-11-26T10:42:19.180Z,51.42
2022-11-26T10:44:47.188Z,51.72
2022-11-26T10:47:24.674Z,50.68
2022-11-26T10:49:53.462Z,50.06
2022-11-26T10:52:30.807Z,50.54
2022-11-26T10:55:07.745Z,51.91
2022-11-26T10:57:35.601Z,51.00
2022-11-26T11:00:04.071Z,51.02
2022-11-26T11:02:33.234Z,51.87
2022-11-26T11:05:01.658Z,51.40
2022-11-26T11:07:31.073Z,51.54
2022-11-26T11:10:02.416Z,49.92
2022-11-26T11:12:30.283Z,50.36
2022-11-26T11:15:08.978Z,50.85
2022-11-26T11:17:36.812Z,51.41
2022-11-26T11:20:27.143Z,51.95
2022-11-26T11:23:18.124Z,52.12
2022-11-26T11:25:57.629Z,51.61
2022-11-26T11:28:26.141Z,52.89
2022-11-26T11:31:00.561Z,53.28
2022-11-26T11:33:28.664Z,51.67
2022-11-26T11:36:03.231Z,52.85
2022-11-26T11:38:34.968Z,53.51
2022-11-26T11:41:02.755Z,55.86
2022-11-26T11:43:30.060Z,55.05
2022-11-26T11:46:20.847Z,55.30
2022-11-26T11:49:08.312Z,55.18
2022-11-26T11:51:42.003Z,54.40
2022-11-26T11:54:22.922Z,54.22
2022-11-26T11:56:55.466Z,53.76
2022-11-26T11:59:37.103Z,54.28
2022-11-26T12:02:27.471Z,52.84
2022-11-26T12:05:06.803Z,52.93
2022-11-26T12:07:52.938Z,53.24
2022-11-26T12:10:25.430Z,52.79
2022-11-26T12:12:54.018Z,53.69
2022-11-26T12:15:23.765Z,51.98
2022-11-26T12:17:53.675Z,53.18
2022-11-26T12:20:32.148Z,53.14
2022-11-26T12:23:09.063Z,52.19
2022-11-26T12:25:40.365Z,51.84
2022-11-26T12:28:22.875Z,52.10
2022-11-26T12:30:51.728Z,52.45
2022-11-26T12:33:26.773Z,53.07
2022-11-26T12:35:55.070Z,53.72
2022-11-26T12:38:25.080Z,53.83
2022-11-26T12:41:02.988Z,51.85
2022-11-26T12:43:49.086Z,53.24
2022-11-26T12:46:20.016Z,53.68
2022-11-26T12:48:53.766Z,52.25
2022-11-26T12:51:27.236Z,53.84
2022-11-26T12:54:02.194Z,53.36
2022-11-26T12:56:32.212Z,53.46
2022-11-26T12:59:05.592Z,53.97
2022-11-26T13:01:33.391Z,52.04
2022-11-26T13:04:22.039Z,52.03
2022-11-26T13:06:58.400Z,52.57
2022-11-26T13:09:41.497Z,52.94
2022-11-26T13:12:10.806Z,52.71
2022-11-26T13:14:45.083Z,55.38
2022-11-26T13:17:13.586Z,53.66
2022-11-26T13:19:43.893Z,52.66
2022-11-26T13:22:14.167Z,53.61
2022-11-26T13:24:41.785Z,54.85
2022-11-26T13:27:12.138Z,55.90
2022-11-26T13:29:39.350Z,54.06
2022-11-26T13:32:25.866Z,54.15
2022-11-26T13:35:05.420Z,54.72
2022-11-26T13:37:36.277Z,53.22
2022-11-26T13:40:09.771Z,53.49
2022-11-26T13:42:49.610Z,55.36
2022-11-26T13:45:16.849Z,53.75
2022-11-26T13:47:49.822Z,53.85
2022-11-26T13:50:29.203Z,53.64
2022-11-26T13:53:04.140Z,53.85
2022-11-26T13:55:57.718Z,52.75
2022-11-26T13:58:26.878Z,53.78
2022-11-26T14:00:54.141Z,55.30
2022-11-26T14:03:40.766Z,54.66
2022-11-26T14:06:08.514Z,53.16
2022-11-26T14:08:37.717Z,55.43
2022-11-26T14:11:05.178Z,55.26
2022-11-26T14:13:32.363Z,55.41
2022-11-26T14:16:01.091Z,54.39
2022-11-26T14:19:00.945Z,53.30
2022-11-26T14:21:28.935Z,54.21
2022-11-26T14:23:57.198Z,54.19
2022-11-26T14:26:27.550Z,55.31
2022-11-26T14:29:06.875Z,54.16
2022-11-26T14:32:00.566Z,54.46
2022-11-26T14:34:31.687Z,53.87
2022-11-26T14:36:59.636Z,53.64
2022-11-26T14:39:27.478Z,53.56
2022-11-26T14:41:59.092Z,53.92
2022-11-26T14:44:29.405Z,53.20
2022-11-26T14:46:58.360Z,55.52
2022-11-26T14:49:36.249Z,56.98
2022-11-26T14:52:05.499Z,54.83
2022-11-26T14:54:38.530Z,54.89
2022-11-26T14:57:13.682Z,54.27
2022-11-26T15:00:00.094Z,54.21
2022-11-26T15:02:28.706Z,54.18
2022-11-26T15:04:59.564Z,53.76
2022-11-26T15:07:27.081Z,53.13
2022-11-26T15:10:06.765Z,52.66
2022-11-26T15:12:34.869Z,52.46
2022-11-26T15:15:02.836Z,53.24
2022-11-26T15:17:30.246Z,52.39
2022-11-26T15:19:57.888Z,52.61
2022-11-26T15:22:25.335Z,52.60
2022-11-26T15:24:52.910Z,52.45
2022-11-26T15:27:29.668Z,51.93
2022-11-26T15:29:57.381Z,53.39
2022-11-26T15:32:25.771Z,52.74
2022-11-26T15:34:53.033Z,51.91
2022-11-26T15:37:20.555Z,52.13
2022-11-26T15:39:47.774Z,51.97
2022-11-26T15:42:28.356Z,51.63
2022-11-26T15:44:55.991Z,51.98
2022-11-26T15:47:23.915Z,52.09
2022-11-26T15:49:56.263Z,52.32
2022-11-26T15:52:30.638Z,51.68
2022-11-26T15:55:16.902Z,51.76
2022-11-26T15:57:44.680Z,51.88
2022-11-26T16:00:20.500Z,51.83
2022-11-26T16:02:48.197Z,51.71
2022-11-26T16:05:41.765Z,51.97
2022-11-26T16:08:23.055Z,52.44
2022-11-26T16:10:57.503Z,52.54
2022-11-26T16:13:28.265Z,52.44
2022-11-26T16:15:58.574Z,52.49
2022-11-26T16:18:28.731Z,52.30
2022-11-26T16:21:14.084Z,52.92
2022-11-26T16:23:41.617Z,52.83
2022-11-26T16:26:13.667Z,53.18
2022-11-26T16:28:40.973Z,53.03
2022-11-26T16:31:08.600Z,52.65
2022-11-26T16:33:35.954Z,53.27
2022-11-26T16:36:05.515Z,53.73
2022-11-26T16:38:33.072Z,53.40
2022-11-26T16:41:00.488Z,53.99
2022-11-26T16:43:27.721Z,54.21
2022-11-26T16:45:55.465Z,53.85
2022-11-26T16:48:26.707Z,54.08
2022-11-26T16:50:54.358Z,53.96
2022-11-26T16:53:22.045Z,53.64
2022-11-26T16:55:50.078Z,53.11
2022-11-26T16:58:27.632Z,53.37
2022-11-26T17:00:55.513Z,53.52
2022-11-26T17:03:23.268Z,54.05
2022-11-26T17:05:52.253Z,52.77
2022-11-26T17:08:19.768Z,53.12
2022-11-26T17:10:51.055Z,53.26
2022-11-26T17:13:18.670Z,53.63
2022-11-26T17:15:46.460Z,53.61
2022-11-26T17:18:18.957Z,53.97
2022-11-26T17:20:46.554Z,53.30
2022-11-26T17:23:14.121Z,53.28
2022-11-26T17:25:43.606Z,53.56
2022-11-26T17:28:12.342Z,53.97
2022-11-26T17:30:39.906Z,54.66
2022-11-26T17:33:07.607Z,54.31
2022-11-26T17:35:35.322Z,53.97
2022-11-26T17:38:02.600Z,54.17
2022-11-26T17:40:29.821Z,54.37
2022-11-26T17:42:57.477Z,54.80
2022-11-26T17:45:24.798Z,54.06
2022-11-26T17:47:52.131Z,54.54
2022-11-26T17:50:23.545Z,55.42
2022-11-26T17:52:50.939Z,55.33
2022-11-26T17:55:18.614Z,55.31
2022-11-26T17:57:46.225Z,55.88
2022-11-26T18:00:16.098Z,55.79
2022-11-26T18:02:43.897Z,55.68
2022-11-26T18:05:11.368Z,55.82
2022-11-26T18:07:38.854Z,55.45
2022-11-26T18:10:07.691Z,55.77
2022-11-26T18:12:34.939Z,56.95
2022-11-26T18:15:04.032Z,55.87
2022-11-26T18:17:31.697Z,56.77
2022-11-26T18:19:58.902Z,57.01
2022-11-26T18:22:26.605Z,56.35
2022-11-26T18:24:57.056Z,56.60
2022-11-26T18:27:26.832Z,56.35
2022-11-26T18:29:54.500Z,56.76
2022-11-26T18:32:21.819Z,56.61
2022-11-26T18:34:50.548Z,56.47
2022-11-26T18:37:18.471Z,57.61
2022-11-26T18:39:45.683Z,57.30
2022-11-26T18:42:36.032Z,56.44
2022-11-26T18:45:00.616Z,56.61
2022-11-26T18:47:27.919Z,56.64
2022-11-26T18:49:55.257Z,56.15
2022-11-26T18:52:22.772Z,55.81
2022-11-26T18:54:49.989Z,55.28
2022-11-26T18:57:17.179Z,55.11
2022-11-26T18:59:44.869Z,55.02
2022-11-26T19:02:12.375Z,55.10
2022-11-26T19:04:39.716Z,54.96
2022-11-26T19:07:08.306Z,54.86
2022-11-26T19:09:35.692Z,55.01
2022-11-26T19:12:03.092Z,54.86
2022-11-26T19:14:30.836Z,55.44
2022-11-26T19:16:58.307Z,55.71
2022-11-26T19:19:27.444Z,55.40
2022-11-26T19:22:01.071Z,55.32
2022-11-26T19:24:29.100Z,55.06
2022-11-26T19:26:57.246Z,54.96
2022-11-26T19:29:24.532Z,55.48
2022-11-26T19:31:51.873Z,55.72
2022-11-26T19:34:19.608Z,55.48
2022-11-26T19:36:48.784Z,55.45
2022-11-26T19:39:16.446Z,55.67
2022-11-26T19:41:44.225Z,56.22
2022-11-26T19:44:11.625Z,56.92
2022-11-26T19:46:40.925Z,56.53
2022-11-26T19:49:12.429Z,56.01
2022-11-26T19:51:40.222Z,56.25
2022-11-26T19:54:07.609Z,56.04
2022-11-26T19:56:35.507Z,55.76
2022-11-26T19:59:03.197Z,55.56
2022-11-26T20:01:31.454Z,55.49
2022-11-26T20:04:00.215Z,55.72
2022-11-26T20:06:28.409Z,55.59
2022-11-26T20:08:56.132Z,56.40
2022-11-26T20:11:23.773Z,56.50
2022-11-26T20:13:51.245Z,57.09
2022-11-26T20:16:22.425Z,56.52
2022-11-26T20:18:49.960Z,56.34
2022-11-26T20:21:21.466Z,56.18
2022-11-26T20:23:49.122Z,56.15
2022-11-26T20:26:21.876Z,56.17
2022-11-26T20:28:49.365Z,55.81
2022-11-26T20:31:21.919Z,56.04
2022-11-26T20:33:51.481Z,55.76
2022-11-26T20:36:20.970Z,56.06
2022-11-26T20:38:52.504Z,56.14
2022-11-26T20:41:20.216Z,56.15
2022-11-26T20:43:47.744Z,56.43
2022-11-26T20:46:15.349Z,57.07
2022-11-26T20:48:43.803Z,56.66
2022-11-26T20:51:14.736Z,56.82
2022-11-26T20:53:42.728Z,56.38
2022-11-26T20:56:10.356Z,57.83
2022-11-26T20:58:37.771Z,57.17
2022-11-26T21:01:05.962Z,57.20
2022-11-26T21:03:33.708Z,57.55
2022-11-26T21:06:01.760Z,57.54
2022-11-26T21:08:29.145Z,57.84
2022-11-26T21:10:56.799Z,57.65
2022-11-26T21:13:24.167Z,57.34
2022-11-26T21:15:51.375Z,57.69
2022-11-26T21:18:18.906Z,57.80
2022-11-26T21:20:46.127Z,57.68
2022-11-26T21:23:13.561Z,57.40
2022-11-26T21:25:42.005Z,57.37
2022-11-26T21:28:09.543Z,57.42
2022-11-26T21:30:37.704Z,57.49
2022-11-26T21:33:09.187Z,57.80
2022-11-26T21:35:37.024Z,58.03
2022-11-26T21:38:05.927Z,57.59
2022-11-26T21:40:33.297Z,57.24
2022-11-26T21:43:00.478Z,56.98
2022-11-26T21:45:28.035Z,57.11
2022-11-26T21:47:55.238Z,56.85
2022-11-26T21:50:23.087Z,57.03
2022-11-26T21:52:50.683Z,56.76
2022-11-26T21:55:17.943Z,57.45
2022-11-26T21:57:45.153Z,57.15
2022-11-26T22:00:12.939Z,57.22
2022-11-26T22:02:40.522Z,57.59
2022-11-26T22:05:07.864Z,57.29
2022-11-26T22:07:35.391Z,57.26
2022-11-26T22:10:03.166Z,57.59
2022-11-26T22:12:30.453Z,58.03
2022-11-26T22:14:57.683Z,57.18
2022-11-26T22:17:25.365Z,57.06
2022-11-26T22:19:52.541Z,57.64
2022-11-26T22:22:19.740Z,57.83
2022-11-26T22:24:47.932Z,57.95
2022-11-26T22:27:15.174Z,57.46
2022-11-26T22:29:42.578Z,57.70
2022-11-26T22:32:10.229Z,57.36
2022-11-26T22:34:37.478Z,57.24
2022-11-26T22:37:04.701Z,58.28
2022-11-26T22:39:32.249Z,57.61
2022-11-26T22:41:59.505Z,57.07
2022-11-26T22:44:26.720Z,56.86
2022-11-26T22:46:54.238Z,56.84
2022-11-26T22:49:22.132Z,56.41
2022-11-26T22:51:49.376Z,56.23
2022-11-26T22:54:18.177Z,56.54
2022-11-26T22:56:45.431Z,56.42
2022-11-26T22:59:13.633Z,56.66
2022-11-26T23:01:41.096Z,57.13
2022-11-26T23:04:08.765Z,56.70
2022-11-26T23:06:36.451Z,56.13
2022-11-26T23:09:05.002Z,56.36
2022-11-26T23:11:33.381Z,56.05
2022-11-26T23:14:02.131Z,55.85
2022-11-26T23:16:29.761Z,56.44
2022-11-26T23:18:57.224Z,56.50
2022-11-26T23:21:28.493Z,57.54
2022-11-26T23:23:56.235Z,56.83
2022-11-26T23:26:27.241Z,57.97
2022-11-26T23:28:58.718Z,56.31
2022-11-26T23:31:27.665Z,56.09
2022-11-26T23:33:54.919Z,56.37
2022-11-26T23:36:22.192Z,56.46
2022-11-26T23:38:49.723Z,56.83
2022-11-26T23:41:16.920Z,57.13
2022-11-26T23:43:44.267Z,57.27
2022-11-26T23:46:16.107Z,57.45
2022-11-26T23:48:43.587Z,57.74
2022-11-26T23:51:14.703Z,57.51
2022-11-26T23:53:43.284Z,57.37
2022-11-26T23:56:18.112Z,57.39
2022-11-26T23:58:48.108Z,58.26
